Accueil
METAR-TAF:

METAR-TAF

Aéroports :

Aéroport de Cherbourg - Maupertus

Cherbourg, France

latitude: 49-39N, longitude: 001-28W, altitude: 138 m

Observation

Le bulletin a été fait il y a 31 minutes, à 15:00 UTC
Vent 3 kt de sud-ouest
Température 5°C
Humidité 65%
Pression 1021 hPa
Visibilité 10 km ou plus
Nuages épars à une hauteur de 2900 ft

METAR: LFRC 211500Z AUTO 22003KT 9999 SCT029 05/M01 Q1021 NOSIG

Heure: 16:31 (15:31 UTC)

Prévision

Le bulletin a été fait il y a 1 heure et 31 minutes, à 14:00 UTC
Prévision valable du 21 à 15 UTC au 21 à 24 UTC
Vent 4 kt de direction variable
Visibilité 10 km ou plus
Nuages fragmentés à une hauteur de 3000 ft
Evoluant progressivement
du 21 à 16 UTC au 21 à 18 UTC
Vent 10 kt de sud
Temporairement
du 21 à 21 UTC au 21 à 24 UTC
Visibilité: 4000 m
Nuages fragmentés à une hauteur de 500 ft
pluie

TAF: LFRC 211400Z 2115/2124 VRB04KT 9999 BKN030 BECMG 2116/2118 19010KT TEMPO 2121/2124 4000 RA BKN005

Observations et prévisions météorologiques de plus de 4000 aéroports (messages METAR et TAF).

Les stations disponibles sont représentées par des disques jaunes et rouges sur la carte.

Passer la souris dessus pour voir le nom de la station.

Cliquer dessus pour voir les observations et prévisions météorologiques.

Pour changer de carte: cliquez sur les boutons verts avec une croix noire pour zoomer, sur le bouton vert avec un tiret pour effectuer un zoom arrière, ou sur les flèches vertes pour les cartes adjacentes.


METAR-TAF: